Time;durP1;ratioP1;P1;durP2;ratioP2;P2;SDS_P1;SDS_P2;PMS_P1;PMS_P2;Temp;Humidity;BMP_temperature;BMP_pressure;BME280_temperature;BME280_humidity;BME280_pressure;Samples;Min_cycle;Max_cycle;Signal;HPM_P1;HPM_P2
2022/03/29 00:01:36;;;;;;;14.67;9.07;;;;;;;;;;5073076;28;20428;-70
2022/03/29 00:04:02;;;;;;;13.87;9.60;;;;;;;;;;5073209;28;20440;-70
2022/03/29 00:06:28;;;;;;;15.07;9.53;;;;;;;;;;5072991;28;20464;-70
2022/03/29 00:08:55;;;;;;;14.93;9.93;;;;;;;;;;5072806;28;20452;-70
2022/03/29 00:11:22;;;;;;;13.63;9.33;;;;;;;;;;5073008;28;20412;-65
2022/03/29 00:13:48;;;;;;;17.23;9.13;;;;;;;;;;5073138;28;20401;-65
2022/03/29 00:16:14;;;;;;;13.10;9.83;;;;;;;;;;5072982;28;20401;-65
2022/03/29 00:18:40;;;;;;;17.97;9.63;;;;;;;;;;5072909;28;20442;-65
2022/03/29 00:21:06;;;;;;;14.83;8.40;;;;;;;;;;5072992;28;20420;-65
2022/03/29 00:23:33;;;;;;;12.97;9.20;;;;;;;;;;5072966;28;20405;-65
2022/03/29 00:25:59;;;;;;;12.77;9.03;;;;;;;;;;5072818;28;20822;-66
2022/03/29 00:28:25;;;;;;;15.70;9.53;;;;;;;;;;5072838;28;20408;-65
2022/03/29 00:30:51;;;;;;;16.83;8.80;;;;;;;;;;5072787;28;20483;-65
2022/03/29 00:33:17;;;;;;;13.13;8.33;;;;;;;;;;5072756;28;20511;-65
2022/03/29 00:35:43;;;;;;;13.17;9.23;;;;;;;;;;5072766;28;20426;-65
2022/03/29 00:38:09;;;;;;;13.63;8.97;;;;;;;;;;5071548;28;20444;-65
2022/03/29 00:40:35;;;;;;;12.90;8.73;;;;;;;;;;5072592;28;20424;-65
2022/03/29 00:43:01;;;;;;;12.37;8.80;;;;;;;;;;5072810;28;20492;-66
2022/03/29 00:45:27;;;;;;;14.70;10.30;;;;;;;;;;5071310;28;20567;-64
2022/03/29 00:47:53;;;;;;;12.30;8.13;;;;;;;;;;5072697;28;20491;-65
2022/03/29 00:50:19;;;;;;;14.80;10.57;;;;;;;;;;5072628;28;20964;-64
2022/03/29 00:52:45;;;;;;;18.77;10.80;;;;;;;;;;5072767;28;20864;-66
2022/03/29 00:55:13;;;;;;;13.93;9.90;;;;;;;;;;5072546;28;20491;-65
2022/03/29 00:57:39;;;;;;;15.43;10.13;;;;;;;;;;5072557;28;20396;-69
2022/03/29 01:00:07;;;;;;;17.70;10.17;;;;;;;;;;5075406;28;20401;-65
2022/03/29 01:02:33;;;;;;;16.70;9.50;;;;;;;;;;5076372;28;20393;-65
2022/03/29 01:04:59;;;;;;;12.43;8.80;;;;;;;;;;5076337;28;20517;-65
2022/03/29 01:07:27;;;;;;;12.90;9.13;;;;;;;;;;5074950;28;20844;-66
2022/03/29 01:09:54;;;;;;;14.80;9.17;;;;;;;;;;5074850;28;20485;-66
2022/03/29 01:12:22;;;;;;;16.33;10.10;;;;;;;;;;5076315;28;20426;-65
2022/03/29 01:14:48;;;;;;;13.83;9.10;;;;;;;;;;5074859;28;20424;-66
2022/03/29 01:20:01;;;;;;;12.37;8.70;;;;;;;;;;5076301;28;20447;-66
2022/03/29 01:22:28;;;;;;;13.53;9.43;;;;;;;;;;5076031;28;20412;-66
2022/03/29 01:24:54;;;;;;;10.80;8.50;;;;;;;;;;5075722;28;20527;-66
2022/03/29 01:27:20;;;;;;;16.20;9.67;;;;;;;;;;5075996;28;20895;-65
2022/03/29 01:29:46;;;;;;;10.87;8.63;;;;;;;;;;5075973;28;20397;-65
2022/03/29 01:32:12;;;;;;;13.23;8.60;;;;;;;;;;5075989;28;20435;-65
2022/03/29 01:34:41;;;;;;;13.67;9.13;;;;;;;;;;5075729;28;20433;-65
2022/03/29 01:37:08;;;;;;;12.40;8.60;;;;;;;;;;5075826;28;20416;-65
2022/03/29 01:39:35;;;;;;;13.00;8.60;;;;;;;;;;5075752;28;20511;-65
2022/03/29 01:42:01;;;;;;;13.80;8.77;;;;;;;;;;5075690;28;20461;-65
2022/03/29 01:44:27;;;;;;;13.60;9.23;;;;;;;;;;5075758;28;20787;-65
2022/03/29 01:46:53;;;;;;;15.00;9.30;;;;;;;;;;5075615;28;20500;-65
2022/03/29 01:49:19;;;;;;;15.90;10.37;;;;;;;;;;5075632;28;20975;-66
2022/03/29 01:51:46;;;;;;;13.40;8.40;;;;;;;;;;5075626;28;20448;-66
2022/03/29 01:54:12;;;;;;;17.00;9.53;;;;;;;;;;5075569;28;20872;-66
2022/03/29 01:56:38;;;;;;;15.80;10.10;;;;;;;;;;5075321;28;20397;-65
2022/03/29 01:59:05;;;;;;;16.10;9.70;;;;;;;;;;5075276;28;20949;-66
2022/03/29 02:01:38;;;;;;;16.57;10.10;;;;;;;;;;5075160;28;20412;-65
2022/03/29 02:04:04;;;;;;;18.57;10.20;;;;;;;;;;5075179;28;20417;-66
2022/03/29 02:06:30;;;;;;;12.73;9.87;;;;;;;;;;5075137;28;20993;-65
2022/03/29 02:08:57;;;;;;;14.87;9.07;;;;;;;;;;5074942;28;20484;-69
2022/03/29 02:11:24;;;;;;;15.53;9.90;;;;;;;;;;5073949;28;20455;-68
2022/03/29 02:13:49;;;;;;;19.50;10.80;;;;;;;;;;5075081;28;20447;-67
2022/03/29 02:16:16;;;;;;;13.87;9.10;;;;;;;;;;5074808;28;20428;-65
2022/03/29 02:18:42;;;;;;;16.83;9.60;;;;;;;;;;5074788;28;20481;-65
2022/03/29 02:21:07;;;;;;;14.93;10.03;;;;;;;;;;5074959;28;20804;-65
2022/03/29 02:23:33;;;;;;;14.60;10.07;;;;;;;;;;5074860;28;20486;-65
2022/03/29 02:26:00;;;;;;;15.43;9.70;;;;;;;;;;5074612;28;20490;-65
2022/03/29 02:28:26;;;;;;;16.47;11.03;;;;;;;;;;5074737;28;20492;-65
2022/03/29 02:30:52;;;;;;;15.50;9.93;;;;;;;;;;5074849;28;20499;-65
2022/03/29 02:33:18;;;;;;;19.77;10.90;;;;;;;;;;5074545;28;20428;-64
2022/03/29 02:35:44;;;;;;;19.17;10.90;;;;;;;;;;5074533;28;20507;-65
2022/03/29 02:38:11;;;;;;;15.37;10.30;;;;;;;;;;5074557;28;20492;-66
2022/03/29 02:40:38;;;;;;;19.13;11.93;;;;;;;;;;5074507;28;21001;-64
2022/03/29 02:43:04;;;;;;;18.63;11.27;;;;;;;;;;5056855;28;20758;-65
2022/03/29 02:45:30;;;;;;;18.23;10.90;;;;;;;;;;5074340;28;20472;-66
2022/03/29 02:47:58;;;;;;;14.90;9.30;;;;;;;;;;5074333;28;20412;-67
2022/03/29 02:50:25;;;;;;;12.80;9.60;;;;;;;;;;5074347;28;20409;-68
2022/03/29 02:52:55;;;;;;;17.17;9.77;;;;;;;;;;5074438;28;20452;-67
2022/03/29 02:55:24;;;;;;;18.23;10.70;;;;;;;;;;5074232;28;20420;-67
2022/03/29 02:57:50;;;;;;;16.50;10.73;;;;;;;;;;5074386;28;20408;-69
2022/03/29 03:00:17;;;;;;;12.67;9.77;;;;;;;;;;5074040;28;20432;-67
2022/03/29 03:02:54;;;;;;;27.00;11.50;;;;;;;;;;5074212;28;20417;-66
2022/03/29 03:05:20;;;;;;;15.93;10.47;;;;;;;;;;5072827;28;20456;-67
2022/03/29 03:07:47;;;;;;;16.30;10.40;;;;;;;;;;5074035;28;20769;-68
2022/03/29 03:10:13;;;;;;;16.17;10.57;;;;;;;;;;5073747;28;20468;-68
2022/03/29 03:12:40;;;;;;;15.80;10.60;;;;;;;;;;5074092;28;20401;-69
2022/03/29 03:15:06;;;;;;;16.10;10.13;;;;;;;;;;5073961;28;20442;-68
2022/03/29 03:17:33;;;;;;;13.97;9.90;;;;;;;;;;5073864;28;20915;-66
2022/03/29 03:19:59;;;;;;;17.57;10.40;;;;;;;;;;5073795;28;20411;-69
2022/03/29 03:22:25;;;;;;;23.20;10.83;;;;;;;;;;5073721;28;20405;-68
2022/03/29 03:24:51;;;;;;;19.67;12.67;;;;;;;;;;5073734;28;20405;-69
2022/03/29 03:27:18;;;;;;;13.93;10.50;;;;;;;;;;5073787;28;20807;-66
2022/03/29 03:29:45;;;;;;;13.90;9.90;;;;;;;;;;5073644;28;20404;-70
2022/03/29 03:32:11;;;;;;;14.93;9.77;;;;;;;;;;5073677;28;20408;-68
2022/03/29 03:34:38;;;;;;;22.60;11.30;;;;;;;;;;5073632;28;20482;-69
2022/03/29 03:37:04;;;;;;;15.53;10.20;;;;;;;;;;5071698;28;20413;-69
2022/03/29 03:39:32;;;;;;;16.60;9.60;;;;;;;;;;5073443;28;20405;-69
2022/03/29 03:41:58;;;;;;;17.43;10.07;;;;;;;;;;5073413;28;20466;-69
2022/03/29 03:44:24;;;;;;;16.90;10.17;;;;;;;;;;5073478;28;20449;-69
2022/03/29 03:46:51;;;;;;;16.10;9.77;;;;;;;;;;5073391;28;20888;-70
2022/03/29 03:49:17;;;;;;;16.80;10.60;;;;;;;;;;5072148;28;20409;-69
2022/03/29 03:51:43;;;;;;;13.37;9.80;;;;;;;;;;5073507;28;20416;-69
2022/03/29 03:54:09;;;;;;;15.63;10.17;;;;;;;;;;5073229;28;20420;-69
2022/03/29 03:56:35;;;;;;;16.60;10.90;;;;;;;;;;5073082;28;20448;-70
2022/03/29 03:59:00;;;;;;;20.60;11.20;;;;;;;;;;5073211;28;20409;-69
2022/03/29 04:01:27;;;;;;;14.37;9.73;;;;;;;;;;5073222;28;20416;-70
2022/03/29 04:03:53;;;;;;;14.43;10.23;;;;;;;;;;5073170;28;20417;-69
2022/03/29 04:06:20;;;;;;;19.10;10.73;;;;;;;;;;5072971;28;20464;-68
2022/03/29 04:08:46;;;;;;;17.80;11.07;;;;;;;;;;5072837;28;20452;-69
2022/03/29 04:11:12;;;;;;;25.47;11.10;;;;;;;;;;5073029;28;20744;-69
2022/03/29 04:13:38;;;;;;;15.43;10.50;;;;;;;;;;5073145;28;20415;-65
2022/03/29 04:16:04;;;;;;;17.43;10.93;;;;;;;;;;5073142;28;20829;-70
2022/03/29 04:18:30;;;;;;;17.90;10.40;;;;;;;;;;5073049;28;20903;-67
2022/03/29 04:20:57;;;;;;;22.67;10.63;;;;;;;;;;5073138;28;20400;-65
2022/03/29 04:23:23;;;;;;;15.37;10.43;;;;;;;;;;5073038;28;20413;-69
2022/03/29 04:25:49;;;;;;;14.10;10.33;;;;;;;;;;5071560;28;20809;-68
2022/03/29 04:28:15;;;;;;;14.03;10.27;;;;;;;;;;5072976;28;20405;-70
2022/03/29 04:30:41;;;;;;;14.37;10.70;;;;;;;;;;5071580;28;20409;-69
2022/03/29 04:33:07;;;;;;;15.30;10.23;;;;;;;;;;5073638;28;20416;-69
2022/03/29 04:35:33;;;;;;;16.13;10.73;;;;;;;;;;5079504;28;20424;-68
2022/03/29 04:37:59;;;;;;;19.10;11.60;;;;;;;;;;5079534;28;20419;-64
2022/03/29 04:40:25;;;;;;;15.97;11.60;;;;;;;;;;5079607;28;20428;-65
2022/03/29 04:42:52;;;;;;;16.30;9.90;;;;;;;;;;5079567;28;20401;-66
2022/03/29 04:45:19;;;;;;;15.57;10.93;;;;;;;;;;5078186;28;20529;-65
2022/03/29 04:47:45;;;;;;;14.63;10.20;;;;;;;;;;5078205;28;20988;-69
2022/03/29 04:50:12;;;;;;;19.20;10.63;;;;;;;;;;5079453;28;20447;-70
2022/03/29 04:52:39;;;;;;;16.40;10.30;;;;;;;;;;5079196;28;20404;-68
2022/03/29 04:55:06;;;;;;;19.93;11.00;;;;;;;;;;5079232;28;20401;-67
2022/03/29 04:57:34;;;;;;;15.63;9.90;;;;;;;;;;5079155;28;20415;-69
2022/03/29 05:00:01;;;;;;;18.50;11.67;;;;;;;;;;5079576;28;20748;-66
2022/03/29 05:02:27;;;;;;;18.93;11.67;;;;;;;;;;5079226;28;20484;-68
2022/03/29 05:04:53;;;;;;;18.67;10.70;;;;;;;;;;5079283;28;20503;-69
2022/03/29 05:07:22;;;;;;;19.73;11.80;;;;;;;;;;5079359;28;20815;-70
2022/03/29 05:09:48;;;;;;;19.10;10.83;;;;;;;;;;5079130;28;20454;-68
2022/03/29 05:12:14;;;;;;;16.33;10.50;;;;;;;;;;5079219;28;20412;-63
2022/03/29 05:14:40;;;;;;;16.83;10.10;;;;;;;;;;5079154;28;20409;-64
2022/03/29 05:17:06;;;;;;;16.10;10.37;;;;;;;;;;5079035;28;20420;-62
2022/03/29 05:19:32;;;;;;;13.43;9.57;;;;;;;;;;5079313;28;20404;-64
2022/03/29 05:21:58;;;;;;;19.30;11.50;;;;;;;;;;5079408;28;20424;-65
2022/03/29 05:24:24;;;;;;;16.93;9.80;;;;;;;;;;5079103;28;20404;-66
2022/03/29 05:26:50;;;;;;;19.00;10.50;;;;;;;;;;5079101;28;20566;-63
2022/03/29 05:29:18;;;;;;;17.63;10.03;;;;;;;;;;5078995;28;20900;-64
2022/03/29 05:31:44;;;;;;;16.10;10.03;;;;;;;;;;5079203;28;20404;-62
2022/03/29 05:34:10;;;;;;;21.50;10.27;;;;;;;;;;5077670;28;20814;-63
2022/03/29 05:36:36;;;;;;;16.20;10.17;;;;;;;;;;5078936;28;20418;-67
2022/03/29 05:39:03;;;;;;;12.17;9.70;;;;;;;;;;5079188;28;20415;-64
2022/03/29 05:41:29;;;;;;;19.30;10.13;;;;;;;;;;5077873;28;20435;-64
2022/03/29 05:43:55;;;;;;;17.87;11.10;;;;;;;;;;5079048;28;20392;-65
2022/03/29 05:49:15;;;;;;;17.33;11.77;;;;;;;;;;5075845;28;20751;-63
2022/03/29 05:51:42;;;;;;;16.70;10.30;;;;;;;;;;5075898;28;20896;-64
2022/03/29 05:54:08;;;;;;;16.37;10.43;;;;;;;;;;5075654;28;20417;-69
2022/03/29 05:56:35;;;;;;;16.17;10.80;;;;;;;;;;5075699;28;20408;-72
2022/03/29 05:59:01;;;;;;;17.20;10.37;;;;;;;;;;5075641;28;20420;-69
2022/03/29 06:01:27;;;;;;;17.70;10.57;;;;;;;;;;5075593;28;20524;-71
2022/03/29 06:03:53;;;;;;;16.73;11.70;;;;;;;;;;5075527;28;20977;-67
2022/03/29 06:06:19;;;;;;;20.67;10.70;;;;;;;;;;5075489;28;20464;-70
2022/03/29 06:08:45;;;;;;;20.03;11.60;;;;;;;;;;5075438;28;20480;-69
2022/03/29 06:11:13;;;;;;;16.73;10.63;;;;;;;;;;5075675;28;20502;-67
2022/03/29 06:13:39;;;;;;;19.57;12.03;;;;;;;;;;5075465;28;20392;-65
2022/03/29 06:16:05;;;;;;;20.00;11.67;;;;;;;;;;5075321;28;20408;-70
2022/03/29 06:18:31;;;;;;;19.20;11.80;;;;;;;;;;5075275;28;20442;-69
2022/03/29 06:20:57;;;;;;;19.40;12.10;;;;;;;;;;5075223;28;20434;-69
2022/03/29 06:23:23;;;;;;;17.90;11.43;;;;;;;;;;5075214;28;21020;-64
2022/03/29 06:25:50;;;;;;;16.20;12.07;;;;;;;;;;5073838;28;20468;-63
2022/03/29 06:28:17;;;;;;;22.20;11.20;;;;;;;;;;5075324;28;20428;-63
2022/03/29 06:30:44;;;;;;;19.33;12.43;;;;;;;;;;5075173;28;20988;-66
2022/03/29 06:33:10;;;;;;;18.37;12.70;;;;;;;;;;5075020;28;20417;-64
2022/03/29 06:35:38;;;;;;;19.03;12.33;;;;;;;;;;5075098;28;20404;-66
2022/03/29 06:38:04;;;;;;;22.30;12.40;;;;;;;;;;5074814;28;20936;-64
2022/03/29 06:40:30;;;;;;;20.30;11.60;;;;;;;;;;5075123;28;20413;-62
2022/03/29 06:42:57;;;;;;;21.37;11.27;;;;;;;;;;5073622;28;20980;-64
2022/03/29 06:45:24;;;;;;;19.80;11.80;;;;;;;;;;5074674;28;20471;-69
2022/03/29 06:47:50;;;;;;;20.47;11.83;;;;;;;;;;5074898;28;20450;-65
2022/03/29 06:50:16;;;;;;;26.60;11.80;;;;;;;;;;5074754;28;20433;-66
2022/03/29 06:52:43;;;;;;;22.47;12.33;;;;;;;;;;5073567;28;20883;-65
2022/03/29 06:55:10;;;;;;;20.03;12.00;;;;;;;;;;5074528;28;20416;-67
2022/03/29 06:57:37;;;;;;;18.33;11.90;;;;;;;;;;5074126;28;20405;-64
2022/03/29 07:00:04;;;;;;;18.10;12.50;;;;;;;;;;5074597;28;20412;-64
2022/03/29 07:02:30;;;;;;;21.60;12.80;;;;;;;;;;5073064;28;20405;-63
2022/03/29 07:04:56;;;;;;;25.47;11.77;;;;;;;;;;5074347;28;20431;-65
2022/03/29 07:07:22;;;;;;;21.47;12.53;;;;;;;;;;5074326;28;20425;-70
2022/03/29 07:12:59;;;;;;;24.13;12.30;;;;;;;;;;5074783;28;20542;-69
2022/03/29 07:15:25;;;;;;;20.43;12.00;;;;;;;;;;5072958;28;20882;-71
2022/03/29 07:17:54;;;;;;;21.50;13.53;;;;;;;;;;5074317;28;20396;-72
2022/03/29 07:20:21;;;;;;;25.23;11.97;;;;;;;;;;5073017;28;20502;-75
2022/03/29 07:22:48;;;;;;;23.77;12.40;;;;;;;;;;5072936;28;20413;-74
2022/03/29 07:25:16;;;;;;;17.90;11.93;;;;;;;;;;5074090;28;20804;-69
2022/03/29 07:27:42;;;;;;;20.57;13.33;;;;;;;;;;5072820;28;20437;-64
2022/03/29 07:30:10;;;;;;;22.97;12.57;;;;;;;;;;5074151;28;20420;-65
2022/03/29 07:32:48;;;;;;;20.80;11.70;;;;;;;;;;5072706;28;20450;-66
2022/03/29 07:35:16;;;;;;;26.70;12.17;;;;;;;;;;5074013;28;20443;-63
2022/03/29 07:37:43;;;;;;;17.17;12.10;;;;;;;;;;5072670;28;20780;-64
2022/03/29 07:40:10;;;;;;;22.70;12.63;;;;;;;;;;5072915;28;20748;-65
2022/03/29 07:42:37;;;;;;;24.80;14.00;;;;;;;;;;5073819;28;20451;-65
2022/03/29 07:45:04;;;;;;;18.77;12.00;;;;;;;;;;5073675;28;20436;-66
2022/03/29 07:47:34;;;;;;;24.80;14.47;;;;;;;;;;5072621;28;20428;-65
2022/03/29 07:50:10;;;;;;;18.47;12.13;;;;;;;;;;5072588;28;20413;-64
2022/03/29 07:52:40;;;;;;;20.43;14.10;;;;;;;;;;5072610;28;20418;-65
2022/03/29 07:55:29;;;;;;;25.13;13.30;;;;;;;;;;5072360;28;20460;-65
2022/03/29 07:57:57;;;;;;;17.80;12.30;;;;;;;;;;5073224;28;20942;-64
2022/03/29 08:00:37;;;;;;;19.40;13.23;;;;;;;;;;5072429;28;20452;-63
2022/03/29 08:03:08;;;;;;;19.50;12.00;;;;;;;;;;5073504;28;20439;-66
2022/03/29 08:05:35;;;;;;;25.17;15.23;;;;;;;;;;5073302;28;20516;-65
2022/03/29 08:08:07;;;;;;;23.70;13.80;;;;;;;;;;5071698;28;20504;-63
2022/03/29 08:10:36;;;;;;;20.67;13.73;;;;;;;;;;5073122;28;20492;-64
2022/03/29 08:13:04;;;;;;;28.77;14.57;;;;;;;;;;5073330;28;20452;-65
2022/03/29 08:15:30;;;;;;;27.13;15.17;;;;;;;;;;5071792;28;20976;-63
2022/03/29 08:17:57;;;;;;;25.10;14.83;;;;;;;;;;5071990;28;20943;-64
2022/03/29 08:20:23;;;;;;;30.17;14.73;;;;;;;;;;5073364;28;20413;-64
2022/03/29 08:22:49;;;;;;;23.00;14.37;;;;;;;;;;5073123;28;20408;-64
2022/03/29 08:25:17;;;;;;;30.73;14.77;;;;;;;;;;5073205;28;20464;-64
2022/03/29 08:27:47;;;;;;;30.47;14.47;;;;;;;;;;5073286;28;20425;-66
2022/03/29 08:30:16;;;;;;;25.50;14.90;;;;;;;;;;5072045;28;20782;-63
2022/03/29 08:33:05;;;;;;;29.87;14.30;;;;;;;;;;5073073;28;20443;-64
2022/03/29 08:35:32;;;;;;;35.20;15.47;;;;;;;;;;5058567;28;20415;-65
2022/03/29 08:37:58;;;;;;;25.50;15.30;;;;;;;;;;5072908;28;20420;-64
2022/03/29 08:40:28;;;;;;;32.23;14.20;;;;;;;;;;5071915;28;20415;-64
2022/03/29 08:43:16;;;;;;;25.17;14.57;;;;;;;;;;5073323;28;20451;-63
2022/03/29 08:45:44;;;;;;;20.70;13.70;;;;;;;;;;5072852;28;20464;-64
2022/03/29 08:48:10;;;;;;;28.57;14.70;;;;;;;;;;5071818;28;20413;-76
2022/03/29 08:50:38;;;;;;;24.37;14.97;;;;;;;;;;5073301;28;20412;-76
2022/03/29 08:53:06;;;;;;;23.57;14.20;;;;;;;;;;5073676;28;20495;-71
2022/03/29 08:55:32;;;;;;;29.00;14.97;;;;;;;;;;5072862;28;20413;-74
2022/03/29 08:57:58;;;;;;;25.17;15.13;;;;;;;;;;5072798;28;20409;-75
2022/03/29 09:00:24;;;;;;;21.10;13.47;;;;;;;;;;5073126;28;20899;-73
2022/03/29 09:02:51;;;;;;;26.93;14.57;;;;;;;;;;5072881;28;20421;-76
2022/03/29 09:05:20;;;;;;;27.80;15.10;;;;;;;;;;5072676;28;20825;-76
2022/03/29 09:07:50;;;;;;;23.10;14.90;;;;;;;;;;5072881;28;20396;-72
2022/03/29 09:10:16;;;;;;;29.37;14.37;;;;;;;;;;5072571;28;20497;-74
2022/03/29 09:12:42;;;;;;;35.90;16.63;;;;;;;;;;5072612;28;20403;-76
2022/03/29 09:15:09;;;;;;;31.20;15.63;;;;;;;;;;5072722;28;20428;-76
2022/03/29 09:17:39;;;;;;;22.87;15.07;;;;;;;;;;5072729;28;20907;-74
2022/03/29 09:20:05;;;;;;;24.87;13.60;;;;;;;;;;5072933;28;20527;-74
2022/03/29 09:22:40;;;;;;;27.73;14.73;;;;;;;;;;5076561;28;20986;-74
2022/03/29 09:25:07;;;;;;;21.30;14.17;;;;;;;;;;5076360;28;20408;-64
2022/03/29 09:27:49;;;;;;;32.43;15.70;;;;;;;;;;5076385;28;20424;-71
2022/03/29 09:30:15;;;;;;;25.43;15.20;;;;;;;;;;5077361;28;20420;-65
2022/03/29 09:32:51;;;;;;;34.60;16.07;;;;;;;;;;5076465;28;20444;-69
2022/03/29 09:35:18;;;;;;;20.63;13.33;;;;;;;;;;5076225;28;20408;-71
2022/03/29 09:37:45;;;;;;;26.50;14.30;;;;;;;;;;5075957;28;20404;-71
2022/03/29 09:40:12;;;;;;;23.97;14.60;;;;;;;;;;5076142;28;20433;-67
2022/03/29 09:42:39;;;;;;;22.77;15.10;;;;;;;;;;5076193;28;20461;-75
2022/03/29 09:45:05;;;;;;;26.57;15.90;;;;;;;;;;5074593;28;20900;-63
2022/03/29 09:47:31;;;;;;;23.43;13.37;;;;;;;;;;5075855;28;20887;-67
2022/03/29 09:50:01;;;;;;;18.50;12.30;;;;;;;;;;5075797;28;20843;-65
2022/03/29 09:52:30;;;;;;;16.17;11.93;;;;;;;;;;5075830;28;20406;-68
2022/03/29 09:55:09;;;;;;;17.40;12.07;;;;;;;;;;5075714;28;20419;-66
2022/03/29 09:57:39;;;;;;;22.77;11.97;;;;;;;;;;5074294;28;20470;-64
2022/03/29 10:00:10;;;;;;;20.27;13.43;;;;;;;;;;5075687;28;20409;-64
2022/03/29 10:02:38;;;;;;;19.27;12.37;;;;;;;;;;5074429;28;20435;-66
2022/03/29 10:05:04;;;;;;;23.40;13.97;;;;;;;;;;5075787;28;20392;-66
2022/03/29 10:07:51;;;;;;;19.90;12.90;;;;;;;;;;5075950;28;20481;-68
2022/03/29 10:10:17;;;;;;;22.20;12.70;;;;;;;;;;5074798;28;20556;-65
2022/03/29 10:12:44;;;;;;;20.10;12.80;;;;;;;;;;5075413;28;20502;-64
2022/03/29 10:15:13;;;;;;;21.77;12.67;;;;;;;;;;5075404;28;20420;-65
2022/03/29 10:17:40;;;;;;;16.57;11.10;;;;;;;;;;5075429;28;20421;-67
2022/03/29 10:20:08;;;;;;;19.17;12.80;;;;;;;;;;5075432;28;20919;-64
2022/03/29 10:22:36;;;;;;;20.87;11.90;;;;;;;;;;5075298;28;20428;-64
2022/03/29 10:25:02;;;;;;;20.23;12.90;;;;;;;;;;5075154;28;20795;-64
2022/03/29 10:27:28;;;;;;;16.87;11.40;;;;;;;;;;5075234;28;20416;-66
2022/03/29 10:29:54;;;;;;;16.43;12.30;;;;;;;;;;5075246;28;20412;-68
2022/03/29 10:32:31;;;;;;;18.43;12.00;;;;;;;;;;5074107;28;20889;-66
2022/03/29 10:35:10;;;;;;;20.30;13.00;;;;;;;;;;5074963;28;20404;-64
2022/03/29 10:37:57;;;;;;;20.37;13.50;;;;;;;;;;5074863;28;20896;-67
2022/03/29 10:40:55;;;;;;;19.50;12.10;;;;;;;;;;5074901;28;20405;-65
2022/03/29 10:43:28;;;;;;;19.27;12.20;;;;;;;;;;5073493;28;20421;-65
2022/03/29 10:45:55;;;;;;;21.77;12.57;;;;;;;;;;5074688;28;20460;-66
2022/03/29 10:48:21;;;;;;;25.87;12.67;;;;;;;;;;5074753;28;20785;-64
2022/03/29 10:50:50;;;;;;;21.03;13.60;;;;;;;;;;5074826;28;20468;-66
2022/03/29 10:53:26;;;;;;;19.63;13.30;;;;;;;;;;5074625;28;20413;-65
2022/03/29 10:56:11;;;;;;;29.20;13.83;;;;;;;;;;5074476;28;20786;-69
2022/03/29 10:58:57;;;;;;;16.47;11.83;;;;;;;;;;5074415;28;20412;-64
2022/03/29 11:01:23;;;;;;;23.77;12.10;;;;;;;;;;5073227;28;20428;-66
2022/03/29 11:03:59;;;;;;;20.97;12.30;;;;;;;;;;5074397;28;20428;-63
2022/03/29 11:06:26;;;;;;;24.03;13.17;;;;;;;;;;5074559;28;20452;-65
2022/03/29 11:09:02;;;;;;;22.40;13.03;;;;;;;;;;5074140;28;20456;-64
2022/03/29 11:11:43;;;;;;;30.63;13.37;;;;;;;;;;5074476;28;20443;-64
2022/03/29 11:14:32;;;;;;;22.77;14.50;;;;;;;;;;5073094;28;20452;-65
2022/03/29 11:17:11;;;;;;;24.70;13.97;;;;;;;;;;5074191;28;20413;-64
2022/03/29 11:19:50;;;;;;;24.93;14.80;;;;;;;;;;5072910;28;20829;-64
2022/03/29 11:22:22;;;;;;;21.80;13.40;;;;;;;;;;5074147;28;20498;-66
2022/03/29 11:24:49;;;;;;;25.27;14.87;;;;;;;;;;5073973;28;20444;-64
2022/03/29 11:27:22;;;;;;;19.00;13.53;;;;;;;;;;5073911;28;20483;-64
2022/03/29 11:29:48;;;;;;;23.53;13.97;;;;;;;;;;5073900;28;20507;-67
2022/03/29 11:32:15;;;;;;;22.37;14.07;;;;;;;;;;5073186;28;20505;-67
2022/03/29 11:34:41;;;;;;;23.07;14.03;;;;;;;;;;5074122;28;20408;-65
2022/03/29 11:37:08;;;;;;;19.30;14.30;;;;;;;;;;5073621;28;20926;-64
2022/03/29 11:39:34;;;;;;;25.70;14.47;;;;;;;;;;5073682;28;20754;-65
2022/03/29 11:42:00;;;;;;;29.63;17.37;;;;;;;;;;5073572;28;20404;-64
2022/03/29 11:44:27;;;;;;;28.53;14.53;;;;;;;;;;5073463;28;20922;-65
2022/03/29 11:46:56;;;;;;;22.30;14.30;;;;;;;;;;5073544;28;20522;-63
2022/03/29 11:49:26;;;;;;;32.03;14.67;;;;;;;;;;5073484;28;20412;-71
2022/03/29 11:52:11;;;;;;;25.13;14.17;;;;;;;;;;5073434;28;20409;-65
2022/03/29 11:54:39;;;;;;;24.13;15.20;;;;;;;;;;5073351;28;21055;-64
2022/03/29 11:57:24;;;;;;;25.70;14.53;;;;;;;;;;5073282;28;20400;-67
2022/03/29 11:59:51;;;;;;;24.93;14.73;;;;;;;;;;5073437;28;20417;-69
2022/03/29 12:02:23;;;;;;;22.13;13.40;;;;;;;;;;5073269;28;20896;-65
2022/03/29 12:04:49;;;;;;;24.80;14.30;;;;;;;;;;5073741;28;20884;-66
2022/03/29 12:07:17;;;;;;;25.37;15.37;;;;;;;;;;5073417;28;20557;-68
2022/03/29 12:09:48;;;;;;;28.23;14.47;;;;;;;;;;5073226;28;20993;-64
2022/03/29 12:12:15;;;;;;;21.20;14.13;;;;;;;;;;5072135;28;20433;-66
2022/03/29 12:14:41;;;;;;;22.17;13.57;;;;;;;;;;5071961;28;20549;-64
2022/03/29 12:17:08;;;;;;;25.13;14.20;;;;;;;;;;5073134;28;20409;-64
2022/03/29 12:19:39;;;;;;;23.07;14.73;;;;;;;;;;5073098;28;20949;-65
2022/03/29 12:22:10;;;;;;;20.93;13.70;;;;;;;;;;5073223;28;20401;-66
2022/03/29 12:24:37;;;;;;;23.00;13.40;;;;;;;;;;5073132;28;20495;-63
2022/03/29 12:27:04;;;;;;;21.87;13.47;;;;;;;;;;5073118;28;21001;-69
2022/03/29 12:29:30;;;;;;;23.23;13.77;;;;;;;;;;5073165;28;20405;-68
2022/03/29 12:31:56;;;;;;;23.47;13.27;;;;;;;;;;5073059;28;20439;-66
2022/03/29 12:34:26;;;;;;;28.97;15.27;;;;;;;;;;5071613;28;20432;-66
2022/03/29 12:37:00;;;;;;;24.20;14.17;;;;;;;;;;5071666;28;20841;-65
2022/03/29 12:39:37;;;;;;;23.00;14.20;;;;;;;;;;5073204;28;20404;-73
2022/03/29 12:42:04;;;;;;;23.70;13.83;;;;;;;;;;5073095;28;20420;-64
2022/03/29 12:44:34;;;;;;;20.20;14.23;;;;;;;;;;5073023;28;20400;-64
2022/03/29 12:47:01;;;;;;;22.03;14.37;;;;;;;;;;5071638;28;20468;-65
2022/03/29 12:49:27;;;;;;;20.90;14.40;;;;;;;;;;5072915;28;20411;-65
2022/03/29 12:51:54;;;;;;;31.33;13.97;;;;;;;;;;5072882;28;20389;-64
2022/03/29 12:54:20;;;;;;;24.93;14.10;;;;;;;;;;5072964;28;20405;-66
2022/03/29 12:56:47;;;;;;;22.03;13.63;;;;;;;;;;5076907;28;20412;-66
2022/03/29 12:59:32;;;;;;;25.40;14.30;;;;;;;;;;5076849;28;20408;-63
2022/03/29 13:02:10;;;;;;;24.30;14.30;;;;;;;;;;5076903;28;20409;-64
2022/03/29 13:04:40;;;;;;;21.67;13.97;;;;;;;;;;5076836;28;20438;-64
2022/03/29 13:07:07;;;;;;;26.53;15.43;;;;;;;;;;5076910;28;20472;-67
2022/03/29 13:09:34;;;;;;;23.70;14.20;;;;;;;;;;5076721;28;20542;-65
2022/03/29 13:12:14;;;;;;;26.20;15.60;;;;;;;;;;5076747;28;20412;-67
2022/03/29 13:14:41;;;;;;;24.17;14.67;;;;;;;;;;5076487;28;20424;-64
2022/03/29 13:17:07;;;;;;;24.03;14.10;;;;;;;;;;5076516;28;20407;-64
2022/03/29 13:19:33;;;;;;;24.00;14.67;;;;;;;;;;5076602;28;20404;-68
2022/03/29 13:22:03;;;;;;;19.80;14.10;;;;;;;;;;5076486;28;20446;-67
2022/03/29 13:24:40;;;;;;;19.90;13.30;;;;;;;;;;5076390;28;20409;-64
2022/03/29 13:27:07;;;;;;;23.17;13.17;;;;;;;;;;5076337;28;20472;-63
2022/03/29 13:29:34;;;;;;;25.00;14.50;;;;;;;;;;5075024;28;20427;-66
2022/03/29 13:32:00;;;;;;;23.63;14.50;;;;;;;;;;5076168;28;21003;-65
2022/03/29 13:34:26;;;;;;;22.27;14.93;;;;;;;;;;5076020;28;20428;-66
2022/03/29 13:36:52;;;;;;;25.00;15.07;;;;;;;;;;5076084;28;20421;-64
2022/03/29 13:39:18;;;;;;;28.63;15.17;;;;;;;;;;5076250;28;20839;-69
2022/03/29 13:41:45;;;;;;;23.23;14.90;;;;;;;;;;5075933;28;20911;-70
2022/03/29 13:44:11;;;;;;;23.50;14.20;;;;;;;;;;5074759;28;20432;-67
2022/03/29 13:46:37;;;;;;;23.37;15.80;;;;;;;;;;5075878;28;20502;-65
2022/03/29 13:49:03;;;;;;;24.03;14.00;;;;;;;;;;5075829;28;20404;-68
2022/03/29 13:51:29;;;;;;;23.17;14.17;;;;;;;;;;5075972;28;20467;-68
2022/03/29 13:53:55;;;;;;;27.73;15.53;;;;;;;;;;5075817;28;20435;-64
2022/03/29 13:56:23;;;;;;;28.10;14.17;;;;;;;;;;5075773;28;20527;-69
2022/03/29 13:58:49;;;;;;;26.30;15.00;;;;;;;;;;5075777;28;20413;-64
2022/03/29 14:01:15;;;;;;;28.37;15.33;;;;;;;;;;5075630;28;20442;-69
2022/03/29 14:03:42;;;;;;;23.67;13.83;;;;;;;;;;5075622;28;20420;-64
2022/03/29 14:06:08;;;;;;;29.90;16.10;;;;;;;;;;5074601;28;20475;-65
2022/03/29 14:08:34;;;;;;;26.70;15.80;;;;;;;;;;5075366;28;20421;-68
2022/03/29 14:11:01;;;;;;;26.03;15.70;;;;;;;;;;5075821;28;20421;-66
2022/03/29 14:13:28;;;;;;;28.07;16.37;;;;;;;;;;5075696;28;20492;-64
2022/03/29 14:15:57;;;;;;;29.17;15.43;;;;;;;;;;5075590;28;20567;-64
2022/03/29 14:18:24;;;;;;;26.60;15.67;;;;;;;;;;5075387;28;20403;-66
2022/03/29 14:20:50;;;;;;;25.40;14.00;;;;;;;;;;5075410;28;20401;-63
2022/03/29 14:23:17;;;;;;;24.57;13.83;;;;;;;;;;5074256;28;20535;-63
2022/03/29 14:25:45;;;;;;;28.03;14.67;;;;;;;;;;5073915;28;20457;-65
2022/03/29 14:28:12;;;;;;;21.07;14.17;;;;;;;;;;5075538;28;20423;-64
2022/03/29 14:30:38;;;;;;;21.90;14.30;;;;;;;;;;5075290;28;20750;-64
2022/03/29 14:33:05;;;;;;;31.60;16.60;;;;;;;;;;5075326;28;20516;-64